createdAt,value
2019-05-29T00:00:36.518Z,0.00
2019-05-29T00:01:36.474Z,0.00
2019-05-29T00:02:36.483Z,0.00
2019-05-29T00:03:36.455Z,0.00
2019-05-29T00:04:36.433Z,0.00
2019-05-29T00:05:36.431Z,0.00
2019-05-29T00:06:36.432Z,0.00
2019-05-29T00:07:36.399Z,0.00
2019-05-29T00:08:36.390Z,0.00
2019-05-29T00:09:36.385Z,0.00
2019-05-29T00:10:36.369Z,0.00
2019-05-29T00:11:36.399Z,0.00
2019-05-29T00:12:36.346Z,0.00
2019-05-29T00:13:36.349Z,0.00
2019-05-29T00:14:36.376Z,0.00
2019-05-29T00:15:36.334Z,0.00
2019-05-29T00:16:36.348Z,0.00
2019-05-29T00:17:36.302Z,0.00
2019-05-29T00:18:36.313Z,0.00
2019-05-29T00:19:36.279Z,0.00
2019-05-29T00:20:36.248Z,0.00
2019-05-29T00:21:36.257Z,0.00
2019-05-29T00:22:36.273Z,0.00
2019-05-29T00:23:36.235Z,0.00
2019-05-29T00:24:36.236Z,0.00
2019-05-29T00:25:36.235Z,0.00
2019-05-29T00:26:36.215Z,0.00
2019-05-29T00:27:36.194Z,0.00
2019-05-29T00:28:36.213Z,0.00
2019-05-29T00:29:36.180Z,0.00
2019-05-29T00:30:36.198Z,0.00
2019-05-29T00:31:36.170Z,0.00
2019-05-29T00:32:36.782Z,0.00
2019-05-29T00:33:36.168Z,0.00
2019-05-29T00:34:36.123Z,0.00
2019-05-29T00:35:36.116Z,0.00
2019-05-29T00:36:36.116Z,0.00
2019-05-29T00:37:36.080Z,0.00
2019-05-29T00:38:36.113Z,0.00
2019-05-29T00:39:36.070Z,0.00
2019-05-29T00:40:36.063Z,0.00
2019-05-29T00:41:36.061Z,0.00
2019-05-29T00:42:36.039Z,0.00
2019-05-29T00:43:36.034Z,0.00
2019-05-29T00:44:36.033Z,0.00
2019-05-29T00:45:36.008Z,0.00
2019-05-29T00:46:35.999Z,0.00
2019-05-29T00:47:35.996Z,0.00
2019-05-29T00:48:35.977Z,0.00
2019-05-29T00:49:35.998Z,0.00
2019-05-29T00:50:35.950Z,0.00
2019-05-29T00:51:35.950Z,0.00
2019-05-29T00:52:35.946Z,0.00
2019-05-29T00:53:35.914Z,0.00
2019-05-29T00:54:35.926Z,0.00
2019-05-29T00:55:35.934Z,0.00
2019-05-29T00:56:35.917Z,0.00
2019-05-29T00:57:35.904Z,0.00
2019-05-29T00:58:35.858Z,0.00
2019-05-29T00:59:35.854Z,0.00
2019-05-29T01:00:35.900Z,0.00
2019-05-29T01:01:35.842Z,0.00
2019-05-29T01:02:35.832Z,0.00
2019-05-29T01:03:35.824Z,0.00
2019-05-29T01:04:35.800Z,0.00
2019-05-29T01:05:35.950Z,0.00
2019-05-29T01:06:35.791Z,0.00
2019-05-29T01:07:35.810Z,0.00
2019-05-29T01:08:35.764Z,0.00
2019-05-29T01:09:35.761Z,0.00
2019-05-29T01:10:35.751Z,0.00
2019-05-29T01:11:35.778Z,0.00
2019-05-29T01:12:35.730Z,0.00
2019-05-29T01:13:35.715Z,0.00
2019-05-29T01:14:49.306Z,0.00
2019-05-29T01:15:36.705Z,0.00
2019-05-29T01:16:35.688Z,0.00
2019-05-29T01:17:35.724Z,0.00
2019-05-29T01:18:35.652Z,0.00
2019-05-29T01:19:35.648Z,0.00
2019-05-29T01:20:35.637Z,0.00
2019-05-29T01:21:35.648Z,0.00
2019-05-29T01:22:35.607Z,0.00
2019-05-29T01:23:35.613Z,0.00
2019-05-29T01:24:35.600Z,0.00
2019-05-29T01:25:35.566Z,0.00
2019-05-29T01:26:35.587Z,0.00
2019-05-29T01:27:35.556Z,0.00
2019-05-29T01:28:35.574Z,0.00
2019-05-29T01:29:35.567Z,0.00
2019-05-29T01:30:35.561Z,0.00
2019-05-29T01:31:35.513Z,0.00
2019-05-29T01:32:35.521Z,0.00
2019-05-29T01:33:35.514Z,0.00
2019-05-29T01:34:35.471Z,0.00
2019-05-29T01:35:35.471Z,0.00
2019-05-29T01:36:35.464Z,0.00
2019-05-29T01:37:35.455Z,0.00
2019-05-29T01:38:35.470Z,0.00
2019-05-29T01:39:35.454Z,0.00
2019-05-29T01:40:35.417Z,0.00
2019-05-29T01:41:35.417Z,0.00
2019-05-29T01:42:35.397Z,0.00
2019-05-29T01:43:35.388Z,0.00
2019-05-29T01:44:35.401Z,0.00
2019-05-29T01:45:35.361Z,0.00
2019-05-29T01:46:35.348Z,0.00
2019-05-29T01:47:35.349Z,0.00
2019-05-29T01:48:35.353Z,0.00
2019-05-29T01:49:35.360Z,0.00
2019-05-29T01:50:35.347Z,0.00
2019-05-29T01:51:35.298Z,0.00
2019-05-29T01:52:35.286Z,0.00
2019-05-29T01:53:35.274Z,0.00
2019-05-29T01:54:35.276Z,0.00
2019-05-29T01:55:35.273Z,0.00
2019-05-29T01:56:35.239Z,0.00
2019-05-29T01:57:35.265Z,0.00
2019-05-29T01:58:35.223Z,0.00
2019-05-29T01:59:35.201Z,0.00
2019-05-29T02:00:35.243Z,0.00
2019-05-29T02:01:35.196Z,0.00
2019-05-29T02:02:35.181Z,0.00
2019-05-29T02:03:35.180Z,0.00
2019-05-29T02:04:35.149Z,0.00
2019-05-29T02:05:35.198Z,0.00
2019-05-29T02:06:35.129Z,0.00
2019-05-29T02:07:35.180Z,0.00
2019-05-29T02:08:35.143Z,0.00
2019-05-29T02:09:35.110Z,0.00
2019-05-29T02:10:35.101Z,0.00
2019-05-29T02:11:35.114Z,0.00
2019-05-29T02:12:35.065Z,0.00
2019-05-29T02:13:35.078Z,0.00
2019-05-29T02:14:35.047Z,0.00
2019-05-29T02:15:35.048Z,0.00
2019-05-29T02:16:35.049Z,0.00
2019-05-29T02:17:35.031Z,0.00
2019-05-29T02:18:35.011Z,0.00
2019-05-29T02:19:34.994Z,0.00
2019-05-29T02:20:34.991Z,0.00
2019-05-29T02:21:35.015Z,0.00
2019-05-29T02:22:34.963Z,0.00
2019-05-29T02:23:34.953Z,0.00
2019-05-29T02:24:34.935Z,4.00
2019-05-29T02:25:34.943Z,4.00
2019-05-29T02:26:34.933Z,4.00
2019-05-29T02:27:34.929Z,4.00
2019-05-29T02:28:34.903Z,0.00
2019-05-29T02:29:34.890Z,4.00
2019-05-29T02:30:34.886Z,4.00
2019-05-29T02:31:34.887Z,4.00
2019-05-29T02:32:34.917Z,4.00
2019-05-29T02:33:34.860Z,4.00
2019-05-29T02:34:34.845Z,8.00
2019-05-29T02:35:34.845Z,4.00
2019-05-29T02:36:34.832Z,8.00
2019-05-29T02:37:34.831Z,8.00
2019-05-29T02:38:34.836Z,12.00
2019-05-29T02:39:34.798Z,12.00
2019-05-29T02:40:34.787Z,16.00
2019-05-29T02:41:34.775Z,16.00
2019-05-29T02:42:34.748Z,20.00
2019-05-29T02:43:34.740Z,16.00
2019-05-29T02:44:34.750Z,20.00
2019-05-29T02:45:53.000Z,24.00
2019-05-29T02:46:35.750Z,28.00
2019-05-29T02:47:34.702Z,32.00
2019-05-29T02:48:34.692Z,36.00
2019-05-29T02:49:34.724Z,40.00
2019-05-29T02:50:34.692Z,44.00
2019-05-29T02:51:34.656Z,52.00
2019-05-29T02:52:34.651Z,56.00
2019-05-29T02:53:34.678Z,64.00
2019-05-29T02:54:34.648Z,68.00
2019-05-29T02:55:34.648Z,76.00
2019-05-29T02:56:34.625Z,84.00
2019-05-29T02:57:34.604Z,96.00
2019-05-29T02:58:34.594Z,104.00
2019-05-29T02:59:34.575Z,116.00
2019-05-29T03:00:34.611Z,128.00
2019-05-29T03:01:34.591Z,144.00
2019-05-29T03:02:34.541Z,156.00
2019-05-29T03:03:39.475Z,172.00
2019-05-29T03:04:35.528Z,188.00
2019-05-29T03:05:34.537Z,208.00
2019-05-29T03:06:34.523Z,224.00
2019-05-29T03:07:34.496Z,244.00
2019-05-29T03:08:34.708Z,264.00
2019-05-29T03:09:34.488Z,288.00
2019-05-29T03:10:34.471Z,312.00
2019-05-29T03:11:34.510Z,336.00
2019-05-29T03:12:34.446Z,364.00
2019-05-29T03:13:34.462Z,396.00
2019-05-29T03:14:34.919Z,424.00
2019-05-29T03:15:34.445Z,456.00
2019-05-29T03:16:35.036Z,488.00
2019-05-29T03:17:34.411Z,524.00
2019-05-29T03:18:35.018Z,556.00
2019-05-29T03:19:34.841Z,596.00
2019-05-29T03:20:34.574Z,632.00
2019-05-29T03:21:34.858Z,668.00
2019-05-29T03:22:35.309Z,708.00
2019-05-29T03:23:36.293Z,748.00
2019-05-29T03:24:35.146Z,788.00
2019-05-29T03:25:35.125Z,832.00
2019-05-29T03:26:35.138Z,872.00
2019-05-29T03:27:34.316Z,916.00
2019-05-29T03:28:34.879Z,960.00
2019-05-29T03:29:34.512Z,1000.00
2019-05-29T03:30:40.611Z,1048.00
2019-05-29T03:31:43.381Z,1092.00
2019-05-29T03:32:45.726Z,1140.00
2019-05-29T03:33:45.310Z,1196.00
2019-05-29T03:34:42.039Z,1252.00
2019-05-29T03:35:43.026Z,1304.00
2019-05-29T03:36:41.970Z,1360.00
2019-05-29T03:37:35.199Z,1412.00
2019-05-29T03:38:34.901Z,1464.00
2019-05-29T03:39:34.578Z,1516.00
2019-05-29T03:40:35.234Z,1568.00
2019-05-29T03:41:34.871Z,1620.00
2019-05-29T03:42:34.480Z,1676.00
2019-05-29T03:43:35.913Z,1724.00
2019-05-29T03:44:35.398Z,1776.00
2019-05-29T03:45:35.873Z,1828.00
2019-05-29T03:46:42.684Z,1872.00
2019-05-29T03:47:35.263Z,1924.00
2019-05-29T03:48:34.532Z,1968.00
2019-05-29T03:49:35.223Z,2016.00
2019-05-29T03:50:34.927Z,2064.00
2019-05-29T03:51:35.124Z,2116.00
2019-05-29T03:52:34.680Z,2156.00
2019-05-29T03:53:36.153Z,2200.00
2019-05-29T03:54:35.467Z,2244.00
2019-05-29T03:55:35.829Z,2288.00
2019-05-29T03:56:34.796Z,2332.00
2019-05-29T03:57:35.684Z,2376.00
2019-05-29T03:58:35.075Z,2416.00
2019-05-29T03:59:35.392Z,2452.00
2019-05-29T04:00:41.356Z,2492.00
2019-05-29T04:01:35.585Z,2532.00
2019-05-29T04:02:35.547Z,2564.00
2019-05-29T04:03:35.534Z,2600.00
2019-05-29T04:04:35.675Z,2640.00
2019-05-29T04:05:35.279Z,2676.00
2019-05-29T04:06:35.374Z,2704.00
2019-05-29T04:07:35.516Z,2740.00
2019-05-29T04:08:35.504Z,2772.00
2019-05-29T04:09:35.313Z,2804.00
2019-05-29T04:10:36.813Z,2840.00
2019-05-29T04:11:35.445Z,2876.00
2019-05-29T04:12:35.368Z,2912.00
2019-05-29T04:13:34.630Z,2948.00
2019-05-29T04:14:35.515Z,2984.00
2019-05-29T04:15:34.435Z,3020.00
2019-05-29T04:16:54.079Z,3064.00
2019-05-29T04:17:35.495Z,3088.00
2019-05-29T04:18:34.037Z,3124.00
2019-05-29T04:19:34.884Z,3168.00
2019-05-29T04:20:33.732Z,3200.00
2019-05-29T04:21:34.298Z,3232.00
2019-05-29T04:22:34.390Z,3280.00
2019-05-29T04:23:34.029Z,3324.00
2019-05-29T04:24:34.113Z,3356.00
2019-05-29T04:25:37.589Z,3380.00
2019-05-29T04:26:36.224Z,3412.00
2019-05-29T04:27:34.303Z,3448.00
2019-05-29T04:28:34.763Z,3488.00
2019-05-29T04:29:34.181Z,3520.00
2019-05-29T04:30:34.354Z,3556.00
2019-05-29T04:31:34.501Z,3596.00
2019-05-29T04:32:34.212Z,3628.00
2019-05-29T04:33:34.919Z,3664.00
2019-05-29T04:34:34.265Z,3700.00
2019-05-29T04:35:34.615Z,3736.00
2019-05-29T04:36:34.889Z,3772.00
2019-05-29T04:37:34.354Z,3820.00
2019-05-29T04:38:35.483Z,3864.00
2019-05-29T04:39:34.486Z,3896.00
2019-05-29T04:40:34.970Z,3936.00
2019-05-29T04:41:34.724Z,3972.00
2019-05-29T04:42:34.042Z,4004.00
2019-05-29T04:43:34.966Z,4044.00
2019-05-29T04:44:35.670Z,4072.00
2019-05-29T04:45:35.303Z,4104.00
2019-05-29T04:46:34.035Z,4120.00
2019-05-29T04:47:35.096Z,4136.00
2019-05-29T04:48:35.118Z,4156.00
2019-05-29T04:49:34.325Z,4176.00
2019-05-29T04:50:34.106Z,4208.00
2019-05-29T04:51:35.270Z,4232.00
2019-05-29T04:52:34.273Z,4264.00
2019-05-29T04:53:33.861Z,4300.00
2019-05-29T04:54:33.469Z,4344.00
2019-05-29T04:55:33.345Z,4376.00
2019-05-29T04:56:33.352Z,4424.00
2019-05-29T04:57:33.341Z,4492.00
2019-05-29T04:58:33.347Z,4588.00
2019-05-29T04:59:33.329Z,4664.00
2019-05-29T05:00:33.320Z,4692.00
2019-05-29T05:01:33.307Z,4712.00
2019-05-29T05:02:33.295Z,4736.00
2019-05-29T05:03:33.338Z,4760.00
2019-05-29T05:04:33.300Z,4788.00
2019-05-29T05:05:33.355Z,4816.00
2019-05-29T05:06:33.283Z,4844.00
2019-05-29T05:07:33.260Z,4876.00
2019-05-29T05:08:33.383Z,4908.00
2019-05-29T05:09:33.412Z,4944.00
2019-05-29T05:10:33.410Z,4972.00
2019-05-29T05:11:33.393Z,5000.00
2019-05-29T05:12:33.636Z,5024.00
2019-05-29T05:13:33.450Z,5048.00
2019-05-29T05:14:33.646Z,5084.00
2019-05-29T05:15:33.669Z,5124.00
2019-05-29T05:16:33.668Z,5160.00
2019-05-29T05:17:33.771Z,5208.00
2019-05-29T05:18:33.796Z,5252.00
2019-05-29T05:19:33.878Z,5288.00
2019-05-29T05:20:34.008Z,5332.00
2019-05-29T05:21:34.046Z,5364.00
2019-05-29T05:22:34.277Z,5416.00
2019-05-29T05:23:34.030Z,5448.00
2019-05-29T05:24:34.195Z,5460.00
2019-05-29T05:25:34.082Z,5484.00
2019-05-29T05:26:34.107Z,5516.00
2019-05-29T05:27:34.149Z,5544.00
2019-05-29T05:28:34.115Z,5576.00
2019-05-29T05:29:33.988Z,5616.00
2019-05-29T05:30:32.977Z,5660.00
2019-05-29T05:31:32.996Z,5700.00
2019-05-29T05:32:32.987Z,5748.00
2019-05-29T05:33:32.948Z,5784.00
2019-05-29T05:34:32.951Z,5816.00
2019-05-29T05:35:32.923Z,5868.00
2019-05-29T05:36:32.931Z,5912.00
2019-05-29T05:37:32.926Z,5952.00
2019-05-29T05:38:32.886Z,5984.00
2019-05-29T05:39:32.898Z,6020.00
2019-05-29T05:40:35.976Z,6048.00
2019-05-29T05:41:32.937Z,6072.00
2019-05-29T05:42:32.935Z,6096.00
2019-05-29T05:43:32.932Z,6128.00
2019-05-29T05:44:32.888Z,6168.00
2019-05-29T05:45:33.021Z,6180.00
2019-05-29T05:46:32.993Z,6212.00
2019-05-29T05:47:44.866Z,6244.00
2019-05-29T05:48:35.035Z,6288.00
2019-05-29T05:49:33.232Z,6312.00
2019-05-29T05:50:33.337Z,6328.00
2019-05-29T05:51:33.469Z,6364.00
2019-05-29T05:52:33.770Z,6384.00
2019-05-29T05:53:33.370Z,6404.00
2019-05-29T05:54:33.365Z,6424.00
2019-05-29T05:55:33.499Z,6464.00
2019-05-29T05:56:33.688Z,6492.00
2019-05-29T05:57:33.506Z,6528.00
2019-05-29T05:58:33.793Z,6556.00
2019-05-29T05:59:33.595Z,6588.00
2019-05-29T06:00:33.985Z,6616.00
2019-05-29T06:01:33.774Z,6644.00
2019-05-29T06:02:33.661Z,6676.00
2019-05-29T06:03:33.852Z,6712.00
2019-05-29T06:04:33.777Z,6740.00
2019-05-29T06:05:33.869Z,6792.00
2019-05-29T06:06:33.839Z,6828.00
2019-05-29T06:07:32.576Z,6856.00
2019-05-29T06:08:32.604Z,6900.00
2019-05-29T06:09:32.732Z,6944.00
2019-05-29T06:10:32.549Z,6984.00
2019-05-29T06:11:32.562Z,7032.00
2019-05-29T06:12:32.524Z,7088.00
2019-05-29T06:13:32.538Z,7128.00
2019-05-29T06:14:32.528Z,7168.00
2019-05-29T06:15:32.520Z,7204.00
2019-05-29T06:16:32.940Z,7244.00
2019-05-29T06:17:32.470Z,7280.00
2019-05-29T06:18:32.469Z,7340.00
2019-05-29T06:19:32.749Z,7420.00
2019-05-29T06:20:32.683Z,7480.00
2019-05-29T06:21:32.584Z,7528.00
2019-05-29T06:22:32.897Z,7576.00
2019-05-29T06:23:32.813Z,7640.00
2019-05-29T06:24:33.415Z,7716.00
2019-05-29T06:25:33.910Z,7784.00
2019-05-29T06:26:32.775Z,7848.00
2019-05-29T06:27:33.386Z,7944.00
2019-05-29T06:28:33.005Z,8028.00
2019-05-29T06:29:33.510Z,8192.00
2019-05-29T06:30:33.966Z,8468.00
2019-05-29T06:31:33.341Z,11856.00
2019-05-29T06:32:33.467Z,23680.00
2019-05-29T06:33:33.436Z,33344.00
2019-05-29T06:34:33.503Z,36192.00
2019-05-29T06:35:34.008Z,37280.00
2019-05-29T06:36:33.452Z,37248.00
2019-05-29T06:37:33.475Z,36096.00
2019-05-29T06:38:33.499Z,30432.00
2019-05-29T06:39:33.413Z,22944.00
2019-05-29T06:40:33.766Z,17408.00
2019-05-29T06:41:33.554Z,15328.00
2019-05-29T06:42:33.515Z,15936.00
2019-05-29T06:43:32.200Z,17184.00
2019-05-29T06:44:32.686Z,18112.00
2019-05-29T06:45:32.178Z,19840.00
2019-05-29T06:46:32.166Z,21376.00
2019-05-29T06:47:32.210Z,22912.00
2019-05-29T06:48:46.272Z,23328.00
2019-05-29T06:49:33.921Z,23872.00
2019-05-29T06:50:32.123Z,27584.00
2019-05-29T06:51:32.128Z,34592.00
2019-05-29T06:52:32.119Z,41824.00
2019-05-29T06:53:32.146Z,44384.00
2019-05-29T06:54:32.088Z,45792.00
2019-05-29T06:55:32.113Z,46592.00
2019-05-29T06:56:32.064Z,46624.00
2019-05-29T06:57:32.074Z,47616.00
2019-05-29T06:58:32.050Z,49120.00
2019-05-29T06:59:32.070Z,50016.00
2019-05-29T07:00:35.599Z,49792.00
2019-05-29T07:01:33.193Z,50016.00
2019-05-29T07:02:32.062Z,49664.00
2019-05-29T07:03:32.106Z,50496.00
2019-05-29T07:04:31.974Z,52160.00
2019-05-29T07:05:31.967Z,51584.00
2019-05-29T07:06:31.962Z,52000.00
2019-05-29T07:07:31.955Z,53280.00
2019-05-29T07:08:38.993Z,54720.00
2019-05-29T07:09:32.968Z,53248.00
2019-05-29T07:10:31.931Z,10908.00
2019-05-29T07:11:31.923Z,54208.00
2019-05-29T07:12:31.887Z,54528.00
2019-05-29T07:13:34.913Z,53568.00
2019-05-29T07:14:31.901Z,52992.00
2019-05-29T07:15:31.936Z,53568.00
2019-05-29T07:16:43.685Z,55232.00
2019-05-29T07:17:32.827Z,57024.00
2019-05-29T07:18:31.817Z,57920.00
2019-05-29T07:19:47.417Z,59904.00
2019-05-29T07:20:32.837Z,61344.00
2019-05-29T07:21:31.792Z,61312.00
2019-05-29T07:22:31.795Z,60320.00
2019-05-29T07:23:31.768Z,59936.00
2019-05-29T07:24:31.941Z,60448.00
2019-05-29T07:25:31.761Z,61248.00
2019-05-29T07:26:31.767Z,61728.00
2019-05-29T07:27:31.723Z,60960.00
2019-05-29T07:28:31.733Z,61920.00
2019-05-29T07:29:31.710Z,62752.00
2019-05-29T07:30:31.704Z,63328.00
2019-05-29T07:31:31.693Z,61568.00
2019-05-29T07:32:31.727Z,62688.00
2019-05-29T07:33:31.652Z,64608.00
2019-05-29T07:34:47.458Z,65344.00
2019-05-29T07:35:32.675Z,64992.00
2019-05-29T07:36:31.671Z,64256.00
2019-05-29T07:37:31.640Z,63360.00
2019-05-29T07:38:31.619Z,62112.00
2019-05-29T07:39:31.603Z,64800.00
2019-05-29T07:40:35.552Z,66464.00
2019-05-29T07:41:31.584Z,67328.00
2019-05-29T07:42:31.581Z,66464.00
2019-05-29T07:43:31.577Z,66848.00
2019-05-29T07:44:31.614Z,67488.00
2019-05-29T07:45:31.626Z,65056.00
2019-05-29T07:46:31.526Z,66432.00
2019-05-29T07:47:31.625Z,65248.00
2019-05-29T07:48:31.498Z,64064.00
2019-05-29T07:49:39.053Z,63968.00
2019-05-29T07:50:32.473Z,67232.00
2019-05-29T07:51:31.463Z,68032.00
2019-05-29T07:52:31.462Z,66848.00
2019-05-29T07:53:33.676Z,69184.00
2019-05-29T07:54:31.441Z,68608.00
2019-05-29T07:55:31.429Z,67712.00
2019-05-29T07:56:31.418Z,67392.00
2019-05-29T07:57:31.414Z,66336.00
2019-05-29T07:58:31.428Z,67392.00
2019-05-29T07:59:31.381Z,68416.00
2019-05-29T08:00:35.697Z,50144.00
2019-05-29T08:01:32.794Z,71808.00
2019-05-29T08:02:31.413Z,70944.00
2019-05-29T08:03:31.465Z,71136.00
2019-05-29T08:04:31.320Z,73056.00
2019-05-29T08:05:31.398Z,76768.00
2019-05-29T08:06:31.332Z,73728.00
2019-05-29T08:07:31.324Z,51872.00
2019-05-29T08:08:31.296Z,76864.00
2019-05-29T08:09:31.325Z,76576.00
2019-05-29T08:10:31.272Z,78496.00
2019-05-29T08:11:31.252Z,79488.00
2019-05-29T08:12:31.273Z,81280.00
2019-05-29T08:13:31.235Z,80832.00
2019-05-29T08:14:31.265Z,80768.00
2019-05-29T08:15:31.304Z,81824.00
2019-05-29T08:16:31.279Z,81280.00
2019-05-29T08:17:31.211Z,80736.00
2019-05-29T08:18:31.867Z,81504.00
2019-05-29T08:19:31.162Z,83360.00
2019-05-29T08:20:31.172Z,85568.00
2019-05-29T08:21:31.170Z,72096.00
2019-05-29T08:22:34.618Z,84864.00
2019-05-29T08:23:31.123Z,26688.00
2019-05-29T08:24:31.114Z,75008.00
2019-05-29T08:25:31.148Z,51744.00
2019-05-29T08:26:31.095Z,85056.00
2019-05-29T08:27:31.082Z,76768.00
2019-05-29T08:28:31.092Z,28224.00
2019-05-29T08:29:31.098Z,23840.00
2019-05-29T08:30:31.053Z,17984.00
2019-05-29T08:31:31.765Z,18912.00
2019-05-29T08:32:31.048Z,20928.00
2019-05-29T08:33:31.024Z,23584.00
2019-05-29T08:34:31.025Z,53984.00
2019-05-29T08:35:31.017Z,26848.00
2019-05-29T08:36:31.002Z,26432.00
2019-05-29T08:37:31.064Z,31264.00
2019-05-29T08:38:30.974Z,93920.00
2019-05-29T08:39:36.117Z,73728.00
2019-05-29T08:40:31.950Z,39328.00
2019-05-29T08:41:31.700Z,93920.00
2019-05-29T08:42:30.922Z,47904.00
2019-05-29T08:43:30.934Z,45856.00
2019-05-29T08:44:30.906Z,56064.00
2019-05-29T08:45:31.910Z,43872.00
2019-05-29T08:46:33.323Z,28832.00
2019-05-29T08:47:30.887Z,28064.00
2019-05-29T08:48:30.897Z,52224.00
2019-05-29T08:49:30.854Z,57184.00
2019-05-29T08:50:31.418Z,51776.00
2019-05-29T08:51:30.842Z,28320.00
2019-05-29T08:52:30.826Z,100512.00
2019-05-29T08:53:30.843Z,92224.00
2019-05-29T08:54:30.804Z,49760.00
2019-05-29T08:55:30.772Z,19808.00
2019-05-29T08:56:30.774Z,18784.00
2019-05-29T08:57:30.760Z,17220.00
2019-05-29T08:58:30.912Z,15672.00
2019-05-29T08:59:30.741Z,64224.00
2019-05-29T09:00:30.775Z,94080.00
2019-05-29T09:01:30.722Z,91232.00
2019-05-29T09:02:30.975Z,90016.00
2019-05-29T09:03:30.690Z,91328.00
2019-05-29T09:04:30.718Z,96096.00
2019-05-29T09:05:30.820Z,34720.00
2019-05-29T09:06:30.692Z,89984.00
2019-05-29T09:07:30.660Z,87712.00
2019-05-29T09:08:30.657Z,88384.00
2019-05-29T09:09:30.642Z,90240.00
2019-05-29T09:10:30.661Z,89216.00
2019-05-29T09:11:30.625Z,86880.00
2019-05-29T09:12:30.655Z,89472.00
2019-05-29T09:13:30.589Z,91520.00
2019-05-29T09:14:30.592Z,91584.00
2019-05-29T09:15:30.658Z,96480.00
2019-05-29T09:16:30.587Z,98048.00
2019-05-29T09:17:30.552Z,100480.00
2019-05-29T09:18:30.544Z,102336.00
2019-05-29T09:19:30.527Z,57856.00
2019-05-29T09:20:50.155Z,22880.00
2019-05-29T09:21:31.519Z,25952.00
2019-05-29T09:22:30.515Z,24992.00
2019-05-29T09:23:30.506Z,24864.00
2019-05-29T09:24:30.502Z,27360.00
2019-05-29T09:25:30.528Z,30752.00
2019-05-29T09:26:30.478Z,31360.00
2019-05-29T09:27:30.456Z,37056.00
2019-05-29T09:28:30.458Z,93600.00
2019-05-29T09:29:30.438Z,107936.00
2019-05-29T09:30:30.451Z,104032.00
2019-05-29T09:31:30.433Z,102528.00
2019-05-29T09:32:48.748Z,100512.00
2019-05-29T09:33:31.397Z,99488.00
2019-05-29T09:34:30.404Z,100128.00
2019-05-29T09:35:30.376Z,100288.00
2019-05-29T09:36:30.408Z,102976.00
2019-05-29T09:37:30.355Z,104384.00
2019-05-29T09:38:30.364Z,104896.00
2019-05-29T09:39:30.340Z,105536.00
2019-05-29T09:40:30.324Z,24256.00
2019-05-29T09:41:30.405Z,28576.00
2019-05-29T09:42:30.325Z,22304.00
2019-05-29T09:43:30.943Z,102848.00
2019-05-29T09:44:38.456Z,76576.00
2019-05-29T09:45:31.292Z,103520.00
2019-05-29T09:46:30.380Z,104704.00
2019-05-29T09:47:30.276Z,28672.00
2019-05-29T09:48:30.270Z,21152.00
2019-05-29T09:49:30.235Z,21408.00
2019-05-29T09:50:48.785Z,27008.00
2019-05-29T09:51:31.216Z,102464.00
2019-05-29T09:52:30.921Z,100704.00
2019-05-29T09:53:30.238Z,100512.00
2019-05-29T09:54:30.367Z,100928.00
2019-05-29T09:55:30.230Z,103552.00
2019-05-29T09:56:30.170Z,104768.00
2019-05-29T09:57:30.159Z,106080.00
2019-05-29T09:58:30.185Z,108288.00
2019-05-29T09:59:30.320Z,109856.00
2019-05-29T10:00:30.128Z,108800.00
2019-05-29T10:01:30.102Z,111936.00
2019-05-29T10:02:30.098Z,116480.00
2019-05-29T10:03:30.120Z,86976.00
2019-05-29T10:04:30.085Z,58432.00
2019-05-29T10:05:30.094Z,36000.00
2019-05-29T10:06:30.080Z,33344.00
2019-05-29T10:07:30.044Z,30272.00
2019-05-29T10:08:30.026Z,29664.00
2019-05-29T10:09:30.083Z,30944.00
2019-05-29T10:10:30.035Z,32640.00
2019-05-29T10:11:30.007Z,120064.00
2019-05-29T10:12:29.995Z,125344.00
2019-05-29T10:13:29.996Z,125984.00
2019-05-29T10:14:29.999Z,126432.00
2019-05-29T10:15:29.965Z,39456.00
2019-05-29T10:16:29.953Z,31840.00
2019-05-29T10:17:29.940Z,31904.00
2019-05-29T10:18:32.502Z,33536.00
2019-05-29T10:19:29.975Z,117216.00
2019-05-29T10:20:29.920Z,115040.00
2019-05-29T10:21:40.348Z,95776.00
2019-05-29T10:22:30.897Z,32704.00
2019-05-29T10:23:29.890Z,66720.00
2019-05-29T10:24:32.331Z,59328.00
2019-05-29T10:25:29.876Z,35680.00
2019-05-29T10:26:29.893Z,107488.00
2019-05-29T10:27:29.885Z,105248.00
2019-05-29T10:28:48.425Z,101984.00
2019-05-29T10:29:30.817Z,96960.00
2019-05-29T10:30:29.859Z,95840.00
2019-05-29T10:31:29.814Z,98176.00
2019-05-29T10:32:29.803Z,92352.00
2019-05-29T10:33:29.804Z,90976.00
2019-05-29T10:34:29.793Z,90720.00
2019-05-29T10:35:29.756Z,92192.00
2019-05-29T10:36:29.786Z,95456.00
2019-05-29T10:37:29.748Z,98944.00
2019-05-29T10:38:29.735Z,101472.00
2019-05-29T10:39:29.730Z,102016.00
2019-05-29T10:40:29.729Z,96544.00
2019-05-29T10:41:29.730Z,100704.00
2019-05-29T10:42:29.690Z,103456.00
2019-05-29T10:43:34.254Z,90144.00
2019-05-29T10:44:30.684Z,44864.00
2019-05-29T10:45:29.677Z,55552.00
2019-05-29T10:46:29.657Z,52000.00
2019-05-29T10:47:29.681Z,34304.00
2019-05-29T10:48:29.665Z,29344.00
2019-05-29T10:49:29.633Z,28320.00
2019-05-29T10:50:29.617Z,27072.00
2019-05-29T10:51:29.599Z,28512.00
2019-05-29T10:52:29.604Z,83904.00
2019-05-29T10:53:29.622Z,44864.00
2019-05-29T10:54:29.569Z,110528.00
2019-05-29T10:55:29.560Z,117120.00
2019-05-29T10:56:29.563Z,119072.00
2019-05-29T10:57:29.541Z,121152.00
2019-05-29T10:58:29.577Z,117408.00
2019-05-29T10:59:29.534Z,127776.00
2019-05-29T11:00:29.524Z,130144.00
2019-05-29T11:01:29.506Z,46112.00
2019-05-29T11:02:29.480Z,49888.00
2019-05-29T11:03:29.519Z,124672.00
2019-05-29T11:04:29.635Z,42944.00
2019-05-29T11:05:29.470Z,128352.00
2019-05-29T11:06:29.456Z,126880.00
2019-05-29T11:07:29.423Z,126368.00
2019-05-29T11:08:29.447Z,109792.00
2019-05-29T11:09:43.459Z,122976.00
2019-05-29T11:10:30.403Z,72032.00
2019-05-29T11:11:29.403Z,64000.00
2019-05-29T11:12:29.451Z,37856.00
2019-05-29T11:13:29.378Z,35424.00
2019-05-29T11:14:29.393Z,35776.00
2019-05-29T11:15:29.360Z,53920.00
2019-05-29T11:16:29.365Z,31712.00
2019-05-29T11:17:29.340Z,28736.00
2019-05-29T11:18:29.341Z,27360.00
2019-05-29T11:19:29.332Z,35840.00
2019-05-29T11:20:29.378Z,115904.00
2019-05-29T11:21:29.316Z,110464.00
2019-05-29T11:22:29.298Z,109600.00
2019-05-29T11:23:29.274Z,108800.00
2019-05-29T11:24:29.286Z,108192.00
2019-05-29T11:25:29.283Z,107392.00
2019-05-29T11:26:29.263Z,107328.00
2019-05-29T11:27:29.373Z,107040.00
2019-05-29T11:28:29.223Z,107808.00
2019-05-29T11:29:29.219Z,106752.00
2019-05-29T11:30:29.243Z,105312.00
2019-05-29T11:31:29.247Z,106656.00
2019-05-29T11:32:29.187Z,106656.00
2019-05-29T11:33:29.166Z,106496.00
2019-05-29T11:34:29.167Z,108864.00
2019-05-29T11:35:29.153Z,109824.00
2019-05-29T11:36:29.163Z,108288.00
2019-05-29T11:37:29.133Z,109920.00
2019-05-29T11:38:29.134Z,108384.00
2019-05-29T11:39:29.198Z,108608.00
2019-05-29T11:40:29.339Z,111680.00
2019-05-29T11:41:29.127Z,112128.00
2019-05-29T11:42:29.112Z,113600.00
2019-05-29T11:43:29.105Z,114080.00
2019-05-29T11:44:29.066Z,112768.00
2019-05-29T11:45:29.100Z,113920.00
2019-05-29T11:46:29.045Z,111808.00
2019-05-29T11:47:29.073Z,110624.00
2019-05-29T11:48:29.041Z,111712.00
2019-05-29T11:49:29.024Z,109184.00
2019-05-29T11:50:29.003Z,107392.00
2019-05-29T11:51:31.717Z,107520.00
2019-05-29T11:53:59.602Z,105536.00
2019-05-29T11:55:08.108Z,104800.00
2019-05-29T11:56:23.369Z,106656.00
2019-05-29T11:56:42.129Z,106976.00
2019-05-29T11:57:42.137Z,111360.00
2019-05-29T11:58:42.130Z,113248.00
2019-05-29T11:59:42.094Z,111552.00
2019-05-29T12:00:42.093Z,113024.00
2019-05-29T12:01:50.236Z,107360.00
2019-05-29T12:02:43.116Z,107872.00
2019-05-29T12:04:05.319Z,110144.00
2019-05-29T12:04:43.096Z,106080.00
2019-05-29T12:05:42.024Z,107008.00
2019-05-29T12:06:42.042Z,103808.00
2019-05-29T12:07:42.029Z,100416.00
2019-05-29T12:08:42.047Z,104512.00
2019-05-29T12:09:42.044Z,104896.00